createdAt,value
2019-02-20T00:00:08.059Z,3.43
2019-02-20T00:02:34.802Z,4.13
2019-02-20T00:05:01.594Z,4.20
2019-02-20T00:07:28.319Z,4.03
2019-02-20T00:09:55.054Z,4.53
2019-02-20T00:12:21.823Z,4.80
2019-02-20T00:14:48.591Z,3.97
2019-02-20T00:17:15.310Z,4.17
2019-02-20T00:19:42.117Z,5.83
2019-02-20T00:22:08.872Z,4.50
2019-02-20T00:24:35.648Z,3.63
2019-02-20T00:27:02.366Z,6.83
2019-02-20T00:29:29.086Z,3.50
2019-02-20T00:31:55.872Z,4.13
2019-02-20T00:34:22.607Z,4.50
2019-02-20T00:36:49.354Z,7.83
2019-02-20T00:39:19.743Z,5.30
2019-02-20T00:41:46.466Z,4.70
2019-02-20T00:44:13.219Z,5.10
2019-02-20T00:46:39.983Z,5.97
2019-02-20T00:49:06.699Z,5.73
2019-02-20T00:51:33.467Z,3.37
2019-02-20T00:54:00.235Z,5.33
2019-02-20T00:56:26.990Z,4.00
2019-02-20T00:58:53.713Z,3.60
2019-02-20T01:01:20.514Z,4.23
2019-02-20T01:03:47.250Z,3.83
2019-02-20T01:06:14.039Z,5.80
2019-02-20T01:08:40.816Z,5.80
2019-02-20T01:11:07.519Z,3.50
2019-02-20T01:13:34.308Z,7.87
2019-02-20T01:16:01.024Z,6.27
2019-02-20T01:18:27.764Z,3.33
2019-02-20T01:20:54.518Z,6.00
2019-02-20T01:23:21.261Z,3.50
2019-02-20T01:25:48.042Z,5.47
2019-02-20T01:28:14.748Z,4.73
2019-02-20T01:30:41.477Z,4.97
2019-02-20T01:33:08.273Z,6.77
2019-02-20T01:35:34.996Z,5.30
2019-02-20T01:38:01.711Z,3.83
2019-02-20T01:40:28.591Z,7.97
2019-02-20T01:42:55.354Z,4.13
2019-02-20T01:45:22.072Z,4.87
2019-02-20T01:47:48.882Z,6.67
2019-02-20T01:50:15.641Z,4.17
2019-02-20T01:52:42.335Z,10.53
2019-02-20T01:55:09.088Z,3.20
2019-02-20T01:57:35.812Z,6.67
2019-02-20T02:00:09.399Z,8.47
2019-02-20T02:02:36.151Z,4.47
2019-02-20T02:05:04.409Z,5.90
2019-02-20T02:07:31.209Z,9.70
2019-02-20T02:09:57.939Z,6.87
2019-02-20T02:12:24.663Z,5.50
2019-02-20T02:14:51.439Z,5.73
2019-02-20T02:17:18.191Z,4.20
2019-02-20T02:19:44.974Z,6.27
2019-02-20T02:22:11.697Z,5.73
2019-02-20T02:24:38.447Z,7.30
2019-02-20T02:27:05.260Z,4.50
2019-02-20T02:29:32.017Z,6.13
2019-02-20T02:31:58.733Z,3.47
2019-02-20T02:34:25.510Z,4.63
2019-02-20T02:36:52.259Z,6.00
2019-02-20T02:39:18.998Z,4.23
2019-02-20T02:41:45.820Z,7.90
2019-02-20T02:44:12.567Z,6.93
2019-02-20T02:46:39.305Z,10.47
2019-02-20T02:49:06.067Z,5.80
2019-02-20T02:51:32.804Z,6.13
2019-02-20T02:53:59.591Z,8.27
2019-02-20T02:56:26.324Z,10.77
2019-02-20T02:58:53.074Z,6.60
2019-02-20T03:01:19.857Z,10.60
2019-02-20T03:03:46.631Z,5.00
2019-02-20T03:06:13.381Z,6.40
2019-02-20T03:08:40.196Z,5.73
2019-02-20T03:11:06.913Z,8.27
2019-02-20T03:13:33.684Z,6.57
2019-02-20T03:16:00.471Z,6.80
2019-02-20T03:18:27.197Z,10.07
2019-02-20T03:20:53.929Z,10.60
2019-02-20T03:23:20.700Z,8.20
2019-02-20T03:25:47.423Z,7.13
2019-02-20T03:28:14.162Z,5.80
2019-02-20T03:30:40.969Z,5.90
2019-02-20T03:33:07.665Z,8.10
2019-02-20T03:35:34.422Z,3.73
2019-02-20T03:38:01.183Z,7.17
2019-02-20T03:40:27.943Z,8.33
2019-02-20T03:42:54.759Z,11.73
2019-02-20T03:45:21.520Z,11.10
2019-02-20T03:47:48.254Z,8.97
2019-02-20T03:50:15.011Z,6.63
2019-02-20T03:52:41.754Z,7.57
2019-02-20T03:55:08.484Z,5.97
2019-02-20T03:57:35.282Z,7.27
2019-02-20T04:00:04.021Z,16.77
2019-02-20T04:02:30.723Z,8.40
2019-02-20T04:04:57.509Z,8.60
2019-02-20T04:07:24.247Z,10.93
2019-02-20T04:09:51.004Z,7.83
2019-02-20T04:12:17.713Z,10.57
2019-02-20T04:14:44.471Z,8.80
2019-02-20T04:17:11.276Z,13.10
2019-02-20T04:19:37.988Z,6.47
2019-02-20T04:22:04.743Z,10.77
2019-02-20T04:24:31.488Z,7.70
2019-02-20T04:26:58.213Z,10.77
2019-02-20T04:29:25.026Z,12.03
2019-02-20T04:31:51.757Z,7.40
2019-02-20T04:34:18.516Z,13.40
2019-02-20T04:36:45.297Z,8.20
2019-02-20T04:39:12.035Z,13.40
2019-02-20T04:41:38.763Z,9.13
2019-02-20T04:44:05.614Z,11.17
2019-02-20T04:46:32.368Z,22.53
2019-02-20T04:48:59.093Z,38.60
2019-02-20T04:51:25.896Z,33.17
2019-02-20T04:53:52.621Z,29.83
2019-02-20T04:56:19.367Z,32.93
2019-02-20T04:58:50.457Z,23.60
2019-02-20T05:01:17.189Z,17.53
2019-02-20T05:03:43.958Z,18.90
2019-02-20T05:06:10.688Z,18.03
2019-02-20T05:08:46.430Z,18.17
2019-02-20T05:11:13.194Z,18.10
2019-02-20T05:13:39.918Z,14.00
2019-02-20T05:16:06.745Z,14.03
2019-02-20T05:18:33.507Z,15.67
2019-02-20T05:21:00.188Z,17.83
2019-02-20T05:23:26.956Z,13.43
2019-02-20T05:25:53.676Z,24.90
2019-02-20T05:28:20.389Z,30.63
2019-02-20T05:30:47.161Z,26.37
2019-02-20T05:33:13.896Z,47.97
2019-02-20T05:35:40.688Z,18.87
2019-02-20T05:38:07.479Z,15.47
2019-02-20T05:40:34.228Z,15.33
2019-02-20T05:43:00.979Z,13.10
2019-02-20T05:45:27.779Z,21.17
2019-02-20T05:47:54.515Z,12.37
2019-02-20T05:50:21.238Z,22.30
2019-02-20T05:52:48.015Z,26.80
2019-02-20T05:55:14.769Z,24.83
2019-02-20T05:57:44.557Z,21.37
2019-02-20T06:00:12.375Z,17.97
2019-02-20T06:02:39.207Z,16.83
2019-02-20T06:05:06.483Z,17.10
2019-02-20T06:07:33.212Z,16.63
2019-02-20T06:09:59.976Z,21.13
2019-02-20T06:12:26.786Z,30.30
2019-02-20T06:14:53.515Z,40.57
2019-02-20T06:17:20.295Z,42.37
2019-02-20T06:19:47.028Z,23.20
2019-02-20T06:22:13.752Z,30.50
2019-02-20T06:24:44.072Z,23.53
2019-02-20T06:27:09.092Z,35.60
2019-02-20T06:29:35.862Z,27.27
2019-02-20T06:32:02.602Z,18.87
2019-02-20T06:34:29.394Z,16.17
2019-02-20T06:36:56.159Z,17.53
2019-02-20T06:39:23.035Z,18.90
2019-02-20T06:41:49.761Z,21.60
2019-02-20T06:44:16.566Z,19.60
2019-02-20T06:46:43.344Z,11.77
2019-02-20T06:49:10.072Z,23.67
2019-02-20T06:51:36.799Z,22.80
2019-02-20T06:54:03.887Z,19.63
2019-02-20T06:56:30.619Z,19.43
2019-02-20T06:58:57.427Z,17.73
2019-02-20T07:01:24.153Z,20.23
2019-02-20T07:03:50.901Z,30.77
2019-02-20T07:06:32.111Z,25.97
2019-02-20T07:09:37.777Z,28.77
2019-02-20T07:12:32.723Z,35.50
2019-02-20T07:15:10.637Z,25.07
2019-02-20T07:18:14.734Z,20.97
2019-02-20T07:21:01.755Z,17.77
2019-02-20T07:23:46.132Z,17.93
2019-02-20T07:26:29.960Z,18.50
2019-02-20T07:29:25.041Z,27.70
2019-02-20T07:31:51.817Z,20.40
2019-02-20T07:34:18.548Z,20.63
2019-02-20T07:36:45.321Z,23.97
2019-02-20T07:39:12.398Z,30.40
2019-02-20T07:41:39.150Z,26.47
2019-02-20T07:44:05.911Z,22.83
2019-02-20T07:46:32.713Z,21.57
2019-02-20T07:48:59.506Z,22.23
2019-02-20T07:51:26.251Z,30.07
2019-02-20T07:53:53.028Z,43.70
2019-02-20T07:56:19.790Z,28.27
2019-02-20T07:58:46.527Z,23.77
2019-02-20T08:01:13.724Z,23.97
2019-02-20T08:03:40.470Z,32.03
2019-02-20T08:06:07.234Z,37.83
2019-02-20T08:08:34.023Z,31.23
2019-02-20T08:11:00.740Z,50.03
2019-02-20T08:13:27.507Z,51.17
2019-02-20T08:15:54.234Z,48.83
2019-02-20T08:18:20.968Z,70.37
2019-02-20T08:20:47.765Z,61.57
2019-02-20T08:23:14.543Z,57.97
2019-02-20T08:25:41.261Z,34.80
2019-02-20T08:28:08.073Z,31.63
2019-02-20T08:30:34.818Z,35.00
2019-02-20T08:33:01.616Z,27.13
2019-02-20T08:35:28.401Z,23.53
2019-02-20T08:37:55.106Z,22.40
2019-02-20T08:40:21.893Z,18.80
2019-02-20T08:42:48.630Z,17.43
2019-02-20T08:45:15.338Z,16.13
2019-02-20T08:47:42.178Z,27.47
2019-02-20T08:50:11.896Z,37.70
2019-02-20T08:52:38.627Z,42.37
2019-02-20T08:55:08.416Z,23.73
2019-02-20T08:57:35.174Z,29.97
2019-02-20T09:00:12.258Z,26.63
2019-02-20T09:02:39.005Z,30.87
2019-02-20T09:05:08.920Z,22.97
2019-02-20T09:07:35.708Z,23.97
2019-02-20T09:10:06.235Z,16.33
2019-02-20T09:12:33.076Z,16.87
2019-02-20T09:14:59.844Z,21.63
2019-02-20T09:17:26.616Z,18.03
2019-02-20T09:19:53.345Z,15.43
2019-02-20T09:22:20.134Z,14.77
2019-02-20T09:24:47.007Z,17.13
2019-02-20T09:27:13.753Z,27.90
2019-02-20T09:29:40.516Z,37.57
2019-02-20T09:32:07.269Z,31.03
2019-02-20T09:34:34.043Z,22.70
2019-02-20T09:37:00.779Z,27.37
2019-02-20T09:39:35.651Z,27.73
2019-02-20T09:42:04.370Z,26.63
2019-02-20T09:44:36.033Z,35.63
2019-02-20T09:47:02.835Z,29.27
2019-02-20T09:49:29.617Z,23.87
2019-02-20T09:51:56.357Z,31.63
2019-02-20T09:54:23.141Z,30.30
2019-02-20T09:56:49.993Z,21.57
2019-02-20T09:59:16.771Z,25.53
2019-02-20T10:01:43.507Z,26.20
2019-02-20T10:04:10.224Z,31.47
2019-02-20T10:06:37.030Z,38.80
2019-02-20T10:09:04.572Z,32.60
2019-02-20T10:11:31.349Z,31.83
2019-02-20T10:13:58.219Z,20.37
2019-02-20T10:16:24.932Z,18.87
2019-02-20T10:18:51.701Z,19.70
2019-02-20T10:21:18.484Z,25.13
2019-02-20T10:23:45.345Z,24.57
2019-02-20T10:26:12.152Z,19.17
2019-02-20T10:28:38.885Z,16.67
2019-02-20T10:31:05.593Z,20.87
2019-02-20T10:33:32.376Z,20.77
2019-02-20T10:35:59.098Z,15.37
2019-02-20T10:38:25.853Z,19.67
2019-02-20T10:40:52.639Z,23.03
2019-02-20T10:43:19.490Z,19.07
2019-02-20T10:45:46.215Z,23.53
2019-02-20T10:48:13.114Z,22.43
2019-02-20T10:50:39.919Z,23.80
2019-02-20T10:53:06.713Z,19.67
2019-02-20T10:55:33.470Z,25.77
2019-02-20T10:58:00.223Z,20.40
2019-02-20T11:00:27.030Z,26.00
2019-02-20T11:02:53.771Z,26.37
2019-02-20T11:05:20.670Z,24.80
2019-02-20T11:07:47.470Z,25.73
2019-02-20T11:10:16.082Z,23.00
2019-02-20T11:12:42.902Z,26.00
2019-02-20T11:15:09.697Z,24.17
2019-02-20T11:17:37.261Z,22.73
2019-02-20T11:20:08.602Z,19.47
2019-02-20T11:22:35.366Z,19.10
2019-02-20T11:25:02.434Z,21.50
2019-02-20T11:27:29.201Z,18.07
2019-02-20T11:29:55.928Z,23.70
2019-02-20T11:32:22.717Z,20.17
2019-02-20T11:34:49.439Z,21.40
2019-02-20T11:37:16.196Z,19.40
2019-02-20T11:39:42.955Z,13.20
2019-02-20T11:42:09.691Z,14.93
2019-02-20T11:44:36.443Z,12.40
2019-02-20T11:47:03.573Z,12.30
2019-02-20T11:49:30.256Z,13.20
2019-02-20T11:51:57.024Z,16.07
2019-02-20T11:54:23.802Z,12.60
2019-02-20T11:56:50.563Z,14.67
2019-02-20T11:59:17.368Z,12.93
2019-02-20T12:01:44.128Z,12.50
2019-02-20T12:04:10.875Z,13.53
2019-02-20T12:06:37.654Z,16.53
2019-02-20T12:09:04.687Z,17.23
2019-02-20T12:11:31.428Z,9.70
2019-02-20T12:13:58.231Z,8.33
2019-02-20T12:16:24.969Z,14.00
2019-02-20T12:18:51.693Z,11.67
2019-02-20T12:21:18.464Z,16.83
2019-02-20T12:23:45.200Z,10.60
2019-02-20T12:26:11.978Z,10.40
2019-02-20T12:28:38.707Z,11.40
2019-02-20T12:31:05.475Z,21.00
2019-02-20T12:33:32.263Z,15.40
2019-02-20T12:35:58.969Z,29.17
2019-02-20T12:38:26.129Z,12.50
2019-02-20T12:40:52.912Z,12.90
2019-02-20T12:43:19.654Z,9.97
2019-02-20T12:45:46.467Z,12.03
2019-02-20T12:48:13.234Z,14.90
2019-02-20T12:50:39.969Z,10.67
2019-02-20T12:53:06.723Z,16.20
2019-02-20T12:55:33.499Z,8.30
2019-02-20T12:58:00.256Z,19.87
2019-02-20T13:00:27.070Z,7.83
2019-02-20T13:02:53.776Z,10.47
2019-02-20T13:05:20.509Z,12.23
2019-02-20T13:07:47.334Z,7.13
2019-02-20T13:10:14.151Z,11.50
2019-02-20T13:12:40.908Z,19.07
2019-02-20T13:15:10.180Z,11.20
2019-02-20T13:17:36.955Z,17.13
2019-02-20T13:20:06.778Z,11.03
2019-02-20T13:22:33.585Z,12.43
2019-02-20T13:25:00.329Z,6.87
2019-02-20T13:27:27.061Z,13.00
2019-02-20T13:29:53.839Z,3.87
2019-02-20T13:32:20.580Z,9.27
2019-02-20T13:34:47.349Z,5.50
2019-02-20T13:37:14.150Z,5.93
2019-02-20T13:39:40.882Z,5.27
2019-02-20T13:42:07.599Z,7.80
2019-02-20T13:44:34.789Z,10.23
2019-02-20T13:47:01.524Z,6.47
2019-02-20T13:49:28.265Z,9.07
2019-02-20T13:51:55.063Z,8.23
2019-02-20T13:54:21.831Z,7.83
2019-02-20T13:56:48.650Z,7.30
2019-02-20T13:59:15.362Z,8.77
2019-02-20T14:01:42.082Z,6.40
2019-02-20T14:04:09.202Z,7.20
2019-02-20T14:06:35.920Z,8.80
2019-02-20T14:09:04.151Z,8.40
2019-02-20T14:11:30.928Z,9.07
2019-02-20T14:13:57.683Z,7.87
2019-02-20T14:16:24.466Z,7.57
2019-02-20T14:18:51.419Z,7.60
2019-02-20T14:21:18.107Z,6.00
2019-02-20T14:23:45.223Z,8.10
2019-02-20T14:26:11.977Z,6.20
2019-02-20T14:28:38.744Z,5.17
2019-02-20T14:31:07.061Z,7.90
2019-02-20T14:33:33.940Z,6.30
2019-02-20T14:36:00.743Z,5.97
2019-02-20T14:38:32.063Z,8.30
2019-02-20T14:40:58.759Z,6.67
2019-02-20T14:43:25.864Z,6.10
2019-02-20T14:45:52.587Z,4.90
2019-02-20T14:48:19.322Z,6.83
2019-02-20T14:50:46.131Z,4.33
2019-02-20T14:53:12.922Z,3.77
2019-02-20T14:55:39.672Z,3.87
2019-02-20T14:58:06.466Z,7.13
2019-02-20T15:00:33.362Z,7.03
2019-02-20T15:03:00.584Z,14.23
2019-02-20T15:05:27.327Z,12.07
2019-02-20T15:07:54.110Z,10.10
2019-02-20T15:10:20.891Z,9.20
2019-02-20T15:12:47.637Z,6.67
2019-02-20T15:15:14.372Z,11.10
2019-02-20T15:17:41.211Z,11.00
2019-02-20T15:20:10.942Z,10.03
2019-02-20T15:22:37.592Z,6.57
2019-02-20T15:25:06.870Z,9.13
2019-02-20T15:27:33.606Z,15.03
2019-02-20T15:30:00.427Z,14.70
2019-02-20T15:32:27.138Z,12.50
2019-02-20T15:34:53.867Z,5.67
2019-02-20T15:37:20.633Z,14.13
2019-02-20T15:39:47.688Z,10.83
2019-02-20T15:42:14.410Z,8.57
2019-02-20T15:44:41.214Z,14.27
2019-02-20T15:47:07.927Z,16.87
2019-02-20T15:49:34.726Z,15.37
2019-02-20T15:52:01.470Z,18.00
2019-02-20T15:54:28.523Z,17.70
2019-02-20T15:56:55.285Z,15.80
2019-02-20T15:59:22.129Z,13.50
2019-02-20T16:01:48.859Z,10.87
2019-02-20T16:04:15.670Z,12.10
2019-02-20T16:06:44.365Z,18.47
2019-02-20T16:09:11.179Z,25.50
2019-02-20T16:11:37.977Z,18.20
2019-02-20T16:14:04.804Z,10.23
2019-02-20T16:16:31.558Z,13.00
2019-02-20T16:18:58.381Z,8.90
2019-02-20T16:21:25.105Z,8.33
2019-02-20T16:23:51.858Z,9.77
2019-02-20T16:26:18.677Z,12.77
2019-02-20T16:28:45.425Z,21.17
2019-02-20T16:31:12.152Z,50.90
2019-02-20T16:33:38.997Z,39.47
2019-02-20T16:36:05.692Z,22.83
2019-02-20T16:38:32.470Z,29.10
2019-02-20T16:40:59.473Z,23.33
2019-02-20T16:43:26.299Z,28.30
2019-02-20T16:45:53.021Z,22.90
2019-02-20T16:48:19.800Z,25.33
2019-02-20T16:50:46.556Z,34.60
2019-02-20T16:53:13.301Z,38.97
2019-02-20T16:55:40.156Z,29.77
2019-02-20T16:58:06.905Z,21.63
2019-02-20T17:00:34.111Z,25.10
2019-02-20T17:03:00.876Z,34.80
2019-02-20T17:05:27.618Z,31.00
2019-02-20T17:07:54.372Z,35.43
2019-02-20T17:10:21.441Z,30.83
2019-02-20T17:12:48.165Z,33.03
2019-02-20T17:15:16.080Z,17.63
2019-02-20T17:17:43.273Z,15.70
2019-02-20T17:20:17.753Z,21.53
2019-02-20T17:22:45.002Z,28.57
2019-02-20T17:25:12.321Z,22.03
2019-02-20T17:27:39.064Z,42.23
2019-02-20T17:30:10.036Z,62.87
2019-02-20T17:32:36.773Z,72.70
2019-02-20T17:35:06.694Z,37.03
2019-02-20T17:37:33.496Z,22.67
2019-02-20T17:40:00.289Z,16.90
2019-02-20T17:42:27.024Z,15.10
2019-02-20T17:44:53.838Z,16.60
2019-02-20T17:47:20.594Z,24.47
2019-02-20T17:49:47.294Z,24.67
2019-02-20T17:52:14.095Z,23.37
2019-02-20T17:54:40.907Z,18.30
2019-02-20T17:57:07.785Z,29.27
2019-02-20T17:59:34.490Z,23.13
2019-02-20T18:02:01.203Z,24.07
2019-02-20T18:04:28.006Z,22.83
2019-02-20T18:06:54.753Z,15.13
2019-02-20T18:09:21.507Z,17.40
2019-02-20T18:11:48.515Z,12.47
2019-02-20T18:14:15.222Z,16.73
2019-02-20T18:16:41.963Z,12.60
2019-02-20T18:19:08.773Z,12.63
2019-02-20T18:21:35.530Z,13.47
2019-02-20T18:24:02.261Z,15.20
2019-02-20T18:26:29.067Z,19.70
2019-02-20T18:28:55.827Z,13.43
2019-02-20T18:31:22.545Z,12.93
2019-02-20T18:33:49.355Z,11.60
2019-02-20T18:36:16.184Z,16.97
2019-02-20T18:38:42.920Z,19.13
2019-02-20T18:41:09.703Z,20.03
2019-02-20T18:43:36.428Z,15.57
2019-02-20T18:46:03.294Z,17.10
2019-02-20T18:48:30.083Z,24.63
2019-02-20T18:50:56.837Z,19.80
2019-02-20T18:53:23.561Z,22.53
2019-02-20T18:55:50.368Z,14.20
2019-02-20T18:58:18.974Z,14.53
2019-02-20T19:00:45.680Z,15.07
2019-02-20T19:03:12.483Z,14.60
2019-02-20T19:05:39.225Z,15.07
2019-02-20T19:08:33.840Z,13.73
2019-02-20T19:11:30.281Z,14.83
2019-02-20T19:14:17.214Z,12.50
2019-02-20T19:17:08.579Z,17.70
2019-02-20T19:22:55.929Z,12.47
2019-02-20T19:25:59.464Z,13.30
2019-02-20T19:28:44.214Z,14.33
2019-02-20T19:31:39.436Z,10.93
2019-02-20T19:34:20.411Z,12.50
2019-02-20T19:37:16.370Z,11.80
2019-02-20T19:39:51.183Z,13.57
2019-02-20T19:42:47.276Z,12.90
2019-02-20T19:45:33.905Z,18.73
2019-02-20T19:48:20.424Z,12.77
2019-02-20T19:50:55.357Z,10.30
2019-02-20T19:53:39.430Z,12.57
2019-02-20T19:56:35.333Z,13.10
2019-02-20T19:59:29.495Z,15.50
2019-02-20T20:02:27.892Z,14.50
2019-02-20T20:05:08.564Z,12.97
2019-02-20T20:08:05.936Z,14.73
2019-02-20T20:10:47.343Z,17.03
2019-02-20T20:13:31.577Z,13.73
2019-02-20T20:16:18.210Z,11.80
2019-02-20T20:19:02.334Z,17.93
2019-02-20T20:21:34.563Z,20.47
2019-02-20T20:24:24.967Z,21.20
2019-02-20T20:27:19.752Z,23.47
2019-02-20T20:30:13.311Z,12.47
2019-02-20T20:33:03.574Z,11.50
2019-02-20T20:35:56.992Z,17.87
2019-02-20T20:38:52.909Z,15.37
2019-02-20T20:41:33.680Z,15.57
2019-02-20T20:44:08.937Z,14.20
2019-02-20T20:46:50.510Z,14.33
2019-02-20T20:49:51.250Z,12.53
2019-02-20T20:52:47.991Z,14.00
2019-02-20T20:55:40.801Z,13.63
2019-02-20T20:58:40.461Z,13.53
2019-02-20T21:01:41.370Z,12.93
2019-02-20T21:04:31.865Z,13.67
2019-02-20T21:07:34.279Z,11.60
2019-02-20T21:10:12.751Z,10.47
2019-02-20T21:12:56.914Z,11.83
2019-02-20T21:15:57.156Z,16.13
2019-02-20T21:18:38.006Z,14.13
2019-02-20T21:21:28.211Z,8.67
2019-02-20T21:24:15.678Z,11.60
2019-02-20T21:27:11.929Z,12.77
2019-02-20T21:29:47.417Z,10.27
2019-02-20T21:32:47.947Z,12.57
2019-02-20T21:35:39.647Z,10.27
2019-02-20T21:38:41.077Z,7.80
2019-02-20T21:41:36.059Z,9.20
2019-02-20T21:44:27.504Z,11.10
2019-02-20T21:47:05.598Z,8.70
2019-02-20T21:50:06.870Z,10.93
2019-02-20T21:52:41.681Z,10.30
2019-02-20T21:55:45.333Z,7.17
2019-02-20T21:58:20.527Z,7.93
2019-02-20T22:01:36.104Z,8.53
2019-02-20T22:04:19.479Z,10.67
2019-02-20T22:07:15.583Z,7.40
2019-02-20T22:10:11.869Z,9.23
2019-02-20T22:13:02.092Z,12.97
2019-02-20T22:15:50.935Z,13.70
2019-02-20T22:18:31.862Z,7.37
2019-02-20T22:21:37.535Z,9.43
2019-02-20T22:24:18.564Z,11.13
2019-02-20T22:27:17.267Z,9.80
2019-02-20T22:30:28.791Z,6.83
2019-02-20T22:33:06.873Z,8.87
2019-02-20T22:35:48.357Z,9.33
2019-02-20T22:38:44.363Z,10.87
2019-02-20T22:41:40.815Z,14.37
2019-02-20T22:44:40.851Z,8.67
2019-02-20T22:47:29.984Z,11.87
2019-02-20T22:50:35.111Z,9.50
2019-02-20T22:53:30.246Z,8.80
2019-02-20T22:56:35.822Z,8.37
2019-02-20T22:59:33.796Z,9.50
2019-02-20T23:02:14.859Z,8.27
2019-02-20T23:05:05.120Z,10.50
2019-02-20T23:07:40.242Z,7.90
2019-02-20T23:10:36.342Z,12.00
2019-02-20T23:13:11.346Z,9.07
2019-02-20T23:15:38.119Z,15.40
2019-02-20T23:18:04.963Z,17.23
2019-02-20T23:20:31.740Z,12.97
2019-02-20T23:22:58.488Z,10.13
2019-02-20T23:25:25.210Z,8.47
2019-02-20T23:27:52.002Z,8.27
2019-02-20T23:30:18.763Z,10.13
2019-02-20T23:32:45.499Z,6.73
2019-02-20T23:35:12.309Z,8.90
2019-02-20T23:37:39.039Z,6.90
2019-02-20T23:40:08.590Z,9.57
2019-02-20T23:42:35.347Z,10.10
2019-02-20T23:45:21.847Z,10.33
2019-02-20T23:47:48.612Z,6.07
2019-02-20T23:50:15.327Z,5.60
2019-02-20T23:52:42.034Z,5.83
2019-02-20T23:55:08.835Z,4.80
2019-02-20T23:57:35.565Z,9.83
